sensor_id;sensor_type;location;lat;lon;timestamp;temperature;humidity
10231;DHT22;62604;49.432;8.680;2024-01-27T00:00:23;2.50;99.90
10231;DHT22;62604;49.432;8.680;2024-01-27T00:02:51;2.50;99.90
10231;DHT22;62604;49.432;8.680;2024-01-27T00:05:18;2.50;99.90
10231;DHT22;62604;49.432;8.680;2024-01-27T00:07:45;2.40;99.90
10231;DHT22;62604;49.432;8.680;2024-01-27T00:10:12;2.40;99.90
10231;DHT22;62604;49.432;8.680;2024-01-27T00:12:40;2.40;99.90
10231;DHT22;62604;49.432;8.680;2024-01-27T00:15:09;2.40;99.90
10231;DHT22;62604;49.432;8.680;2024-01-27T00:17:36;2.40;99.90
10231;DHT22;62604;49.432;8.680;2024-01-27T00:20:03;2.40;99.90
10231;DHT22;62604;49.432;8.680;2024-01-27T00:22:30;2.40;99.90
10231;DHT22;62604;49.432;8.680;2024-01-27T00:24:57;2.40;99.90
10231;DHT22;62604;49.432;8.680;2024-01-27T00:27:24;2.40;99.90
10231;DHT22;62604;49.432;8.680;2024-01-27T00:29:50;2.30;99.90
10231;DHT22;62604;49.432;8.680;2024-01-27T00:32:19;2.30;99.90
10231;DHT22;62604;49.432;8.680;2024-01-27T00:34:46;2.40;99.90
10231;DHT22;62604;49.432;8.680;2024-01-27T00:37:12;2.40;99.90
10231;DHT22;62604;49.432;8.680;2024-01-27T00:39:39;2.30;99.90
10231;DHT22;62604;49.432;8.680;2024-01-27T00:42:07;2.40;99.90
10231;DHT22;62604;49.432;8.680;2024-01-27T00:44:34;2.40;99.90
10231;DHT22;62604;49.432;8.680;2024-01-27T00:47:02;2.40;99.90
10231;DHT22;62604;49.432;8.680;2024-01-27T00:49:30;2.40;99.90
10231;DHT22;62604;49.432;8.680;2024-01-27T00:51:57;2.40;99.90
10231;DHT22;62604;49.432;8.680;2024-01-27T00:54:24;2.30;99.90
10231;DHT22;62604;49.432;8.680;2024-01-27T00:56:52;2.30;99.90
10231;DHT22;62604;49.432;8.680;2024-01-27T00:59:19;2.30;99.90
10231;DHT22;62604;49.432;8.680;2024-01-27T01:01:46;2.20;99.90
10231;DHT22;62604;49.432;8.680;2024-01-27T01:04:13;2.20;99.90
10231;DHT22;62604;49.432;8.680;2024-01-27T01:06:41;2.20;99.90
10231;DHT22;62604;49.432;8.680;2024-01-27T01:09:08;2.20;99.90
10231;DHT22;62604;49.432;8.680;2024-01-27T01:11:35;2.10;99.90
10231;DHT22;62604;49.432;8.680;2024-01-27T01:14:02;2.10;99.90
10231;DHT22;62604;49.432;8.680;2024-01-27T01:16:29;2.10;99.90
10231;DHT22;62604;49.432;8.680;2024-01-27T01:18:56;2.00;99.90
10231;DHT22;62604;49.432;8.680;2024-01-27T01:21:23;2.00;99.90
10231;DHT22;62604;49.432;8.680;2024-01-27T01:23:52;2.10;99.90
10231;DHT22;62604;49.432;8.680;2024-01-27T01:26:19;2.00;99.90
10231;DHT22;62604;49.432;8.680;2024-01-27T01:28:46;2.00;99.90
10231;DHT22;62604;49.432;8.680;2024-01-27T01:31:13;2.00;99.90
10231;DHT22;62604;49.432;8.680;2024-01-27T01:33:40;2.00;99.90
10231;DHT22;62604;49.432;8.680;2024-01-27T01:36:07;2.00;99.90
10231;DHT22;62604;49.432;8.680;2024-01-27T01:38:34;1.90;99.90
10231;DHT22;62604;49.432;8.680;2024-01-27T01:41:02;1.90;99.90
10231;DHT22;62604;49.432;8.680;2024-01-27T01:43:29;1.90;99.90
10231;DHT22;62604;49.432;8.680;2024-01-27T01:45:57;1.90;99.90
10231;DHT22;62604;49.432;8.680;2024-01-27T01:48:24;1.80;99.90
10231;DHT22;62604;49.432;8.680;2024-01-27T01:50:51;1.80;99.90
10231;DHT22;62604;49.432;8.680;2024-01-27T01:53:18;1.80;99.90
10231;DHT22;62604;49.432;8.680;2024-01-27T01:55:45;1.80;99.90
10231;DHT22;62604;49.432;8.680;2024-01-27T01:58:14;1.80;99.90
10231;DHT22;62604;49.432;8.680;2024-01-27T02:00:43;1.80;99.90
10231;DHT22;62604;49.432;8.680;2024-01-27T02:03:17;1.80;99.90
10231;DHT22;62604;49.432;8.680;2024-01-27T02:05:44;1.80;99.90
10231;DHT22;62604;49.432;8.680;2024-01-27T02:08:13;1.80;99.90
10231;DHT22;62604;49.432;8.680;2024-01-27T02:10:40;1.80;99.90
10231;DHT22;62604;49.432;8.680;2024-01-27T02:13:18;1.70;99.90
10231;DHT22;62604;49.432;8.680;2024-01-27T02:15:45;1.70;99.90
10231;DHT22;62604;49.432;8.680;2024-01-27T02:18:13;1.70;99.90
10231;DHT22;62604;49.432;8.680;2024-01-27T02:20:40;1.70;99.90
10231;DHT22;62604;49.432;8.680;2024-01-27T02:23:07;1.70;99.90
10231;DHT22;62604;49.432;8.680;2024-01-27T02:25:35;1.60;99.90
10231;DHT22;62604;49.432;8.680;2024-01-27T02:28:03;1.70;99.90
10231;DHT22;62604;49.432;8.680;2024-01-27T02:30:30;1.70;99.90
10231;DHT22;62604;49.432;8.680;2024-01-27T02:32:57;1.70;99.90
10231;DHT22;62604;49.432;8.680;2024-01-27T02:35:26;1.70;99.90
10231;DHT22;62604;49.432;8.680;2024-01-27T02:37:53;1.70;99.90
10231;DHT22;62604;49.432;8.680;2024-01-27T02:40:20;1.70;99.90
10231;DHT22;62604;49.432;8.680;2024-01-27T02:42:48;1.70;99.90
10231;DHT22;62604;49.432;8.680;2024-01-27T02:45:15;1.70;99.90
10231;DHT22;62604;49.432;8.680;2024-01-27T02:47:42;1.70;99.90
10231;DHT22;62604;49.432;8.680;2024-01-27T02:50:09;1.70;99.90
10231;DHT22;62604;49.432;8.680;2024-01-27T02:52:36;1.70;99.90
10231;DHT22;62604;49.432;8.680;2024-01-27T02:55:04;1.70;99.90
10231;DHT22;62604;49.432;8.680;2024-01-27T02:57:32;1.60;99.90
10231;DHT22;62604;49.432;8.680;2024-01-27T03:00:00;1.60;99.90
10231;DHT22;62604;49.432;8.680;2024-01-27T03:02:27;1.60;99.90
10231;DHT22;62604;49.432;8.680;2024-01-27T03:04:54;1.50;99.90
10231;DHT22;62604;49.432;8.680;2024-01-27T03:07:23;1.50;99.90
10231;DHT22;62604;49.432;8.680;2024-01-27T03:09:54;1.50;99.90
10231;DHT22;62604;49.432;8.680;2024-01-27T03:12:22;1.50;99.90
10231;DHT22;62604;49.432;8.680;2024-01-27T03:14:51;1.50;99.90
10231;DHT22;62604;49.432;8.680;2024-01-27T03:17:24;1.50;99.90
10231;DHT22;62604;49.432;8.680;2024-01-27T03:19:56;1.50;99.90
10231;DHT22;62604;49.432;8.680;2024-01-27T03:22:26;1.50;99.90
10231;DHT22;62604;49.432;8.680;2024-01-27T03:24:57;1.50;99.90
10231;DHT22;62604;49.432;8.680;2024-01-27T03:27:24;1.50;99.90
10231;DHT22;62604;49.432;8.680;2024-01-27T03:29:51;1.50;99.90
10231;DHT22;62604;49.432;8.680;2024-01-27T03:32:18;1.50;99.90
10231;DHT22;62604;49.432;8.680;2024-01-27T03:34:46;1.50;99.90
10231;DHT22;62604;49.432;8.680;2024-01-27T03:37:13;1.40;99.90
10231;DHT22;62604;49.432;8.680;2024-01-27T03:39:41;1.40;99.90
10231;DHT22;62604;49.432;8.680;2024-01-27T03:42:09;1.40;99.90
10231;DHT22;62604;49.432;8.680;2024-01-27T03:44:38;1.40;99.90
10231;DHT22;62604;49.432;8.680;2024-01-27T03:47:05;1.40;99.90
10231;DHT22;62604;49.432;8.680;2024-01-27T03:49:33;1.40;99.90
10231;DHT22;62604;49.432;8.680;2024-01-27T03:52:07;1.40;99.90
10231;DHT22;62604;49.432;8.680;2024-01-27T03:54:39;1.40;99.90
10231;DHT22;62604;49.432;8.680;2024-01-27T03:57:15;1.40;99.90
10231;DHT22;62604;49.432;8.680;2024-01-27T03:59:45;1.30;99.90
10231;DHT22;62604;49.432;8.680;2024-01-27T04:02:20;1.30;99.90
10231;DHT22;62604;49.432;8.680;2024-01-27T04:04:48;1.30;99.90
10231;DHT22;62604;49.432;8.680;2024-01-27T04:07:31;1.30;99.90
10231;DHT22;62604;49.432;8.680;2024-01-27T04:10:01;1.30;99.90
10231;DHT22;62604;49.432;8.680;2024-01-27T04:12:29;1.30;99.90
10231;DHT22;62604;49.432;8.680;2024-01-27T04:14:57;1.20;99.90
10231;DHT22;62604;49.432;8.680;2024-01-27T04:17:29;1.30;99.90
10231;DHT22;62604;49.432;8.680;2024-01-27T04:19:59;1.30;99.90
10231;DHT22;62604;49.432;8.680;2024-01-27T04:22:26;1.30;99.90
10231;DHT22;62604;49.432;8.680;2024-01-27T04:24:57;1.30;99.90
10231;DHT22;62604;49.432;8.680;2024-01-27T04:27:24;1.30;99.90
10231;DHT22;62604;49.432;8.680;2024-01-27T04:29:51;1.30;99.90
10231;DHT22;62604;49.432;8.680;2024-01-27T04:32:18;1.20;99.90
10231;DHT22;62604;49.432;8.680;2024-01-27T04:34:47;1.20;99.90
10231;DHT22;62604;49.432;8.680;2024-01-27T04:37:14;1.30;99.90
10231;DHT22;62604;49.432;8.680;2024-01-27T04:39:41;1.20;99.90
10231;DHT22;62604;49.432;8.680;2024-01-27T04:42:09;1.20;99.90
10231;DHT22;62604;49.432;8.680;2024-01-27T04:44:40;1.20;99.90
10231;DHT22;62604;49.432;8.680;2024-01-27T04:47:07;1.20;99.90
10231;DHT22;62604;49.432;8.680;2024-01-27T04:49:34;1.20;99.90
10231;DHT22;62604;49.432;8.680;2024-01-27T04:52:01;1.20;99.90
10231;DHT22;62604;49.432;8.680;2024-01-27T04:54:28;1.10;99.90
10231;DHT22;62604;49.432;8.680;2024-01-27T04:56:55;1.10;99.90
10231;DHT22;62604;49.432;8.680;2024-01-27T04:59:24;1.10;99.90
10231;DHT22;62604;49.432;8.680;2024-01-27T05:01:51;1.10;99.90
10231;DHT22;62604;49.432;8.680;2024-01-27T05:04:18;1.10;99.90
10231;DHT22;62604;49.432;8.680;2024-01-27T05:06:46;1.10;99.90
10231;DHT22;62604;49.432;8.680;2024-01-27T05:09:13;1.10;99.90
10231;DHT22;62604;49.432;8.680;2024-01-27T05:11:43;1.10;99.90
10231;DHT22;62604;49.432;8.680;2024-01-27T05:14:12;1.10;99.90
10231;DHT22;62604;49.432;8.680;2024-01-27T05:16:49;1.10;99.90
10231;DHT22;62604;49.432;8.680;2024-01-27T05:19:17;1.10;99.90
10231;DHT22;62604;49.432;8.680;2024-01-27T05:21:45;1.10;99.90
10231;DHT22;62604;49.432;8.680;2024-01-27T05:24:12;1.10;99.90
10231;DHT22;62604;49.432;8.680;2024-01-27T05:26:41;1.10;99.90
10231;DHT22;62604;49.432;8.680;2024-01-27T05:29:09;1.10;99.90
10231;DHT22;62604;49.432;8.680;2024-01-27T05:31:37;1.10;99.90
10231;DHT22;62604;49.432;8.680;2024-01-27T05:34:06;1.10;99.90
10231;DHT22;62604;49.432;8.680;2024-01-27T05:36:33;1.10;99.90
10231;DHT22;62604;49.432;8.680;2024-01-27T05:39:02;1.10;99.90
10231;DHT22;62604;49.432;8.680;2024-01-27T05:41:32;1.10;99.90
10231;DHT22;62604;49.432;8.680;2024-01-27T05:44:00;1.10;99.90
10231;DHT22;62604;49.432;8.680;2024-01-27T05:46:27;1.10;99.90
10231;DHT22;62604;49.432;8.680;2024-01-27T05:48:59;1.10;99.90
10231;DHT22;62604;49.432;8.680;2024-01-27T05:51:39;1.10;99.90
10231;DHT22;62604;49.432;8.680;2024-01-27T05:54:06;1.10;99.90
10231;DHT22;62604;49.432;8.680;2024-01-27T05:56:35;1.10;99.90
10231;DHT22;62604;49.432;8.680;2024-01-27T05:59:03;1.10;99.90
10231;DHT22;62604;49.432;8.680;2024-01-27T06:01:33;1.10;99.90
10231;DHT22;62604;49.432;8.680;2024-01-27T06:04:00;1.10;99.90
10231;DHT22;62604;49.432;8.680;2024-01-27T06:06:27;1.00;99.90
10231;DHT22;62604;49.432;8.680;2024-01-27T06:08:58;1.00;99.90
10231;DHT22;62604;49.432;8.680;2024-01-27T06:11:28;0.90;99.90
10231;DHT22;62604;49.432;8.680;2024-01-27T06:13:57;0.90;99.90
10231;DHT22;62604;49.432;8.680;2024-01-27T06:16:26;0.90;99.90
10231;DHT22;62604;49.432;8.680;2024-01-27T06:18:53;0.90;99.90
10231;DHT22;62604;49.432;8.680;2024-01-27T06:21:20;0.90;99.90
10231;DHT22;62604;49.432;8.680;2024-01-27T06:23:47;0.90;99.90
10231;DHT22;62604;49.432;8.680;2024-01-27T06:26:15;0.90;99.90
10231;DHT22;62604;49.432;8.680;2024-01-27T06:28:42;0.90;99.90
10231;DHT22;62604;49.432;8.680;2024-01-27T06:31:10;0.90;99.90
10231;DHT22;62604;49.432;8.680;2024-01-27T06:33:37;0.90;99.90
10231;DHT22;62604;49.432;8.680;2024-01-27T06:36:04;0.90;99.90
10231;DHT22;62604;49.432;8.680;2024-01-27T06:38:31;0.90;99.90
10231;DHT22;62604;49.432;8.680;2024-01-27T06:40:59;0.90;99.90
10231;DHT22;62604;49.432;8.680;2024-01-27T06:43:28;0.90;99.90
10231;DHT22;62604;49.432;8.680;2024-01-27T06:45:55;0.90;99.90
10231;DHT22;62604;49.432;8.680;2024-01-27T06:48:22;0.90;99.90
10231;DHT22;62604;49.432;8.680;2024-01-27T06:50:51;0.90;99.90
10231;DHT22;62604;49.432;8.680;2024-01-27T06:53:18;0.80;99.90
10231;DHT22;62604;49.432;8.680;2024-01-27T06:55:46;0.90;99.90
10231;DHT22;62604;49.432;8.680;2024-01-27T06:58:13;0.90;99.90
10231;DHT22;62604;49.432;8.680;2024-01-27T07:00:41;0.90;99.90
10231;DHT22;62604;49.432;8.680;2024-01-27T07:03:08;0.90;99.90
10231;DHT22;62604;49.432;8.680;2024-01-27T07:05:35;0.90;99.90
10231;DHT22;62604;49.432;8.680;2024-01-27T07:08:05;0.90;99.90
10231;DHT22;62604;49.432;8.680;2024-01-27T07:10:34;1.00;99.90
10231;DHT22;62604;49.432;8.680;2024-01-27T07:13:02;0.90;99.90
10231;DHT22;62604;49.432;8.680;2024-01-27T07:15:29;1.00;99.90
10231;DHT22;62604;49.432;8.680;2024-01-27T07:17:57;0.90;99.90
10231;DHT22;62604;49.432;8.680;2024-01-27T07:20:26;0.90;99.90
10231;DHT22;62604;49.432;8.680;2024-01-27T07:22:54;0.90;99.90
10231;DHT22;62604;49.432;8.680;2024-01-27T07:25:22;1.00;99.90
10231;DHT22;62604;49.432;8.680;2024-01-27T07:27:49;0.90;99.90
10231;DHT22;62604;49.432;8.680;2024-01-27T07:30:17;1.00;99.90
10231;DHT22;62604;49.432;8.680;2024-01-27T07:32:44;0.90;99.90
10231;DHT22;62604;49.432;8.680;2024-01-27T07:35:13;1.00;99.90
10231;DHT22;62604;49.432;8.680;2024-01-27T07:37:41;1.00;99.90
10231;DHT22;62604;49.432;8.680;2024-01-27T07:40:10;1.00;99.90
10231;DHT22;62604;49.432;8.680;2024-01-27T07:42:51;1.00;99.90
10231;DHT22;62604;49.432;8.680;2024-01-27T07:45:18;1.10;99.90
10231;DHT22;62604;49.432;8.680;2024-01-27T07:47:45;1.10;99.90
10231;DHT22;62604;49.432;8.680;2024-01-27T07:50:15;1.10;99.90
10231;DHT22;62604;49.432;8.680;2024-01-27T07:52:44;1.10;99.90
10231;DHT22;62604;49.432;8.680;2024-01-27T07:55:15;1.10;99.90
10231;DHT22;62604;49.432;8.680;2024-01-27T07:57:43;1.10;99.90
10231;DHT22;62604;49.432;8.680;2024-01-27T08:00:15;1.10;99.90
10231;DHT22;62604;49.432;8.680;2024-01-27T08:02:58;1.20;99.90
10231;DHT22;62604;49.432;8.680;2024-01-27T08:05:27;1.20;99.90
10231;DHT22;62604;49.432;8.680;2024-01-27T08:07:54;1.20;99.90
10231;DHT22;62604;49.432;8.680;2024-01-27T08:10:21;1.20;99.90
10231;DHT22;62604;49.432;8.680;2024-01-27T08:12:48;1.20;99.90
10231;DHT22;62604;49.432;8.680;2024-01-27T08:15:15;1.20;99.90
10231;DHT22;62604;49.432;8.680;2024-01-27T08:17:42;1.20;99.90
10231;DHT22;62604;49.432;8.680;2024-01-27T08:20:10;1.20;99.90
10231;DHT22;62604;49.432;8.680;2024-01-27T08:22:39;1.30;99.90
10231;DHT22;62604;49.432;8.680;2024-01-27T08:25:07;1.30;99.90
10231;DHT22;62604;49.432;8.680;2024-01-27T08:27:34;1.30;99.90
10231;DHT22;62604;49.432;8.680;2024-01-27T08:30:01;1.40;99.90
10231;DHT22;62604;49.432;8.680;2024-01-27T08:32:28;1.40;99.90
10231;DHT22;62604;49.432;8.680;2024-01-27T08:34:55;1.50;99.90
10231;DHT22;62604;49.432;8.680;2024-01-27T08:37:22;1.50;99.90
10231;DHT22;62604;49.432;8.680;2024-01-27T08:39:50;1.50;99.90
10231;DHT22;62604;49.432;8.680;2024-01-27T08:42:17;1.60;99.90
10231;DHT22;62604;49.432;8.680;2024-01-27T08:44:44;1.60;99.90
10231;DHT22;62604;49.432;8.680;2024-01-27T08:47:11;1.60;99.90
10231;DHT22;62604;49.432;8.680;2024-01-27T08:49:38;1.70;99.90
10231;DHT22;62604;49.432;8.680;2024-01-27T08:52:05;1.70;99.90
10231;DHT22;62604;49.432;8.680;2024-01-27T08:54:32;1.80;99.90
10231;DHT22;62604;49.432;8.680;2024-01-27T08:57:03;1.90;99.90
10231;DHT22;62604;49.432;8.680;2024-01-27T08:59:30;1.90;99.90
10231;DHT22;62604;49.432;8.680;2024-01-27T09:01:59;1.90;99.90
10231;DHT22;62604;49.432;8.680;2024-01-27T09:04:26;2.00;99.90
10231;DHT22;62604;49.432;8.680;2024-01-27T09:06:53;2.10;99.90
10231;DHT22;62604;49.432;8.680;2024-01-27T09:09:20;2.10;99.90
10231;DHT22;62604;49.432;8.680;2024-01-27T09:11:47;2.20;99.90
10231;DHT22;62604;49.432;8.680;2024-01-27T09:14:17;2.20;99.90
10231;DHT22;62604;49.432;8.680;2024-01-27T09:16:44;2.30;99.90
10231;DHT22;62604;49.432;8.680;2024-01-27T09:19:12;2.30;99.90
10231;DHT22;62604;49.432;8.680;2024-01-27T09:21:39;2.40;99.90
10231;DHT22;62604;49.432;8.680;2024-01-27T09:24:06;2.50;99.90
10231;DHT22;62604;49.432;8.680;2024-01-27T09:26:34;2.50;99.90
10231;DHT22;62604;49.432;8.680;2024-01-27T09:29:01;2.60;99.90
10231;DHT22;62604;49.432;8.680;2024-01-27T09:31:29;2.60;99.90
10231;DHT22;62604;49.432;8.680;2024-01-27T09:33:56;2.70;99.90
10231;DHT22;62604;49.432;8.680;2024-01-27T09:36:23;2.70;99.90
10231;DHT22;62604;49.432;8.680;2024-01-27T09:38:51;2.70;99.90
10231;DHT22;62604;49.432;8.680;2024-01-27T09:41:20;2.70;99.90
10231;DHT22;62604;49.432;8.680;2024-01-27T09:43:47;2.70;99.90
10231;DHT22;62604;49.432;8.680;2024-01-27T09:46:18;2.80;99.90
10231;DHT22;62604;49.432;8.680;2024-01-27T09:48:46;2.80;99.90
10231;DHT22;62604;49.432;8.680;2024-01-27T09:51:14;2.90;99.90
10231;DHT22;62604;49.432;8.680;2024-01-27T09:53:41;3.00;99.90
10231;DHT22;62604;49.432;8.680;2024-01-27T09:56:09;3.00;99.90
10231;DHT22;62604;49.432;8.680;2024-01-27T09:58:37;3.10;99.90
10231;DHT22;62604;49.432;8.680;2024-01-27T10:01:20;3.10;99.90
10231;DHT22;62604;49.432;8.680;2024-01-27T10:04:08;3.20;99.90
10231;DHT22;62604;49.432;8.680;2024-01-27T10:06:35;3.30;99.90
10231;DHT22;62604;49.432;8.680;2024-01-27T10:09:05;3.40;99.90
10231;DHT22;62604;49.432;8.680;2024-01-27T10:11:36;3.40;99.90
10231;DHT22;62604;49.432;8.680;2024-01-27T10:14:07;3.50;99.90
10231;DHT22;62604;49.432;8.680;2024-01-27T10:16:41;3.70;99.90
10231;DHT22;62604;49.432;8.680;2024-01-27T10:19:14;3.70;99.90
10231;DHT22;62604;49.432;8.680;2024-01-27T10:21:42;3.80;99.90
10231;DHT22;62604;49.432;8.680;2024-01-27T10:24:09;3.90;99.90
10231;DHT22;62604;49.432;8.680;2024-01-27T10:26:36;3.90;99.90
10231;DHT22;62604;49.432;8.680;2024-01-27T10:29:03;4.00;99.90
10231;DHT22;62604;49.432;8.680;2024-01-27T10:31:33;4.10;99.90
10231;DHT22;62604;49.432;8.680;2024-01-27T10:34:00;4.10;99.90
10231;DHT22;62604;49.432;8.680;2024-01-27T10:36:40;4.20;99.90
10231;DHT22;62604;49.432;8.680;2024-01-27T10:39:17;4.30;99.90
10231;DHT22;62604;49.432;8.680;2024-01-27T10:41:46;4.30;99.90
10231;DHT22;62604;49.432;8.680;2024-01-27T10:44:15;4.40;99.90
10231;DHT22;62604;49.432;8.680;2024-01-27T10:46:44;4.50;99.90
10231;DHT22;62604;49.432;8.680;2024-01-27T10:49:14;4.50;99.90
10231;DHT22;62604;49.432;8.680;2024-01-27T10:51:45;4.60;99.90
10231;DHT22;62604;49.432;8.680;2024-01-27T10:54:18;4.70;99.90
10231;DHT22;62604;49.432;8.680;2024-01-27T10:56:45;4.80;99.90
10231;DHT22;62604;49.432;8.680;2024-01-27T10:59:13;4.90;99.90
10231;DHT22;62604;49.432;8.680;2024-01-27T11:01:43;5.00;99.90
10231;DHT22;62604;49.432;8.680;2024-01-27T11:04:11;5.10;99.90
10231;DHT22;62604;49.432;8.680;2024-01-27T11:06:40;5.10;99.90
10231;DHT22;62604;49.432;8.680;2024-01-27T11:09:12;5.10;99.90
10231;DHT22;62604;49.432;8.680;2024-01-27T11:11:40;5.20;99.90
10231;DHT22;62604;49.432;8.680;2024-01-27T11:14:08;5.30;99.90
10231;DHT22;62604;49.432;8.680;2024-01-27T11:16:35;5.30;99.90
10231;DHT22;62604;49.432;8.680;2024-01-27T11:19:04;5.40;99.90
10231;DHT22;62604;49.432;8.680;2024-01-27T11:21:31;5.50;99.90
10231;DHT22;62604;49.432;8.680;2024-01-27T11:23:58;5.50;99.90
10231;DHT22;62604;49.432;8.680;2024-01-27T11:26:27;5.60;99.90
10231;DHT22;62604;49.432;8.680;2024-01-27T11:28:54;5.70;99.90
10231;DHT22;62604;49.432;8.680;2024-01-27T11:31:21;5.80;99.90
10231;DHT22;62604;49.432;8.680;2024-01-27T11:33:50;5.90;99.90
10231;DHT22;62604;49.432;8.680;2024-01-27T11:36:21;5.90;99.90
10231;DHT22;62604;49.432;8.680;2024-01-27T11:38:49;6.00;99.90
10231;DHT22;62604;49.432;8.680;2024-01-27T11:41:30;6.10;99.90
10231;DHT22;62604;49.432;8.680;2024-01-27T11:43:58;6.10;99.90
10231;DHT22;62604;49.432;8.680;2024-01-27T11:46:26;6.20;99.90
10231;DHT22;62604;49.432;8.680;2024-01-27T11:48:54;6.20;99.90
10231;DHT22;62604;49.432;8.680;2024-01-27T11:51:21;6.30;99.90
10231;DHT22;62604;49.432;8.680;2024-01-27T11:53:48;6.40;99.90
10231;DHT22;62604;49.432;8.680;2024-01-27T11:56:15;6.50;99.90
10231;DHT22;62604;49.432;8.680;2024-01-27T11:58:48;6.60;99.90
10231;DHT22;62604;49.432;8.680;2024-01-27T12:01:15;6.70;99.90
10231;DHT22;62604;49.432;8.680;2024-01-27T12:03:43;6.80;99.90
10231;DHT22;62604;49.432;8.680;2024-01-27T12:06:10;6.80;99.40
10231;DHT22;62604;49.432;8.680;2024-01-27T12:08:38;6.90;99.90
10231;DHT22;62604;49.432;8.680;2024-01-27T12:11:06;6.90;99.90
10231;DHT22;62604;49.432;8.680;2024-01-27T12:13:34;7.00;99.90
10231;DHT22;62604;49.432;8.680;2024-01-27T12:16:03;7.10;99.90
10231;DHT22;62604;49.432;8.680;2024-01-27T12:18:30;7.10;99.90
10231;DHT22;62604;49.432;8.680;2024-01-27T12:20:57;7.20;99.90
10231;DHT22;62604;49.432;8.680;2024-01-27T12:23:24;7.10;99.90
10231;DHT22;62604;49.432;8.680;2024-01-27T12:25:54;7.10;97.70
10231;DHT22;62604;49.432;8.680;2024-01-27T12:28:22;7.20;98.70
10231;DHT22;62604;49.432;8.680;2024-01-27T12:30:50;7.10;97.50
10231;DHT22;62604;49.432;8.680;2024-01-27T12:33:19;7.20;99.60
10231;DHT22;62604;49.432;8.680;2024-01-27T12:35:50;7.30;99.90
10231;DHT22;62604;49.432;8.680;2024-01-27T12:38:17;7.40;99.90
10231;DHT22;62604;49.432;8.680;2024-01-27T12:40:44;7.40;99.40
10231;DHT22;62604;49.432;8.680;2024-01-27T12:43:11;7.50;99.90
10231;DHT22;62604;49.432;8.680;2024-01-27T12:45:38;7.50;99.90
10231;DHT22;62604;49.432;8.680;2024-01-27T12:48:06;7.50;99.90
10231;DHT22;62604;49.432;8.680;2024-01-27T12:50:35;7.50;99.90
10231;DHT22;62604;49.432;8.680;2024-01-27T12:53:02;7.50;99.90
10231;DHT22;62604;49.432;8.680;2024-01-27T12:55:29;7.50;99.90
10231;DHT22;62604;49.432;8.680;2024-01-27T12:57:56;7.50;99.90
10231;DHT22;62604;49.432;8.680;2024-01-27T13:00:23;7.50;99.90
10231;DHT22;62604;49.432;8.680;2024-01-27T13:02:50;7.50;99.90
10231;DHT22;62604;49.432;8.680;2024-01-27T13:05:17;7.50;99.90
10231;DHT22;62604;49.432;8.680;2024-01-27T13:07:45;7.50;99.90
10231;DHT22;62604;49.432;8.680;2024-01-27T13:10:14;7.40;99.90
10231;DHT22;62604;49.432;8.680;2024-01-27T13:12:41;7.50;99.90
10231;DHT22;62604;49.432;8.680;2024-01-27T13:15:08;7.40;99.30
10231;DHT22;62604;49.432;8.680;2024-01-27T13:17:35;7.50;99.90
10231;DHT22;62604;49.432;8.680;2024-01-27T13:20:03;7.50;99.90
10231;DHT22;62604;49.432;8.680;2024-01-27T13:22:31;7.40;99.50
10231;DHT22;62604;49.432;8.680;2024-01-27T13:25:00;7.40;97.90
10231;DHT22;62604;49.432;8.680;2024-01-27T13:27:30;7.40;97.60
10231;DHT22;62604;49.432;8.680;2024-01-27T13:29:57;7.30;96.80
10231;DHT22;62604;49.432;8.680;2024-01-27T13:32:24;7.30;95.20
10231;DHT22;62604;49.432;8.680;2024-01-27T13:34:52;7.20;93.40
10231;DHT22;62604;49.432;8.680;2024-01-27T13:37:19;7.20;95.30
10231;DHT22;62604;49.432;8.680;2024-01-27T13:39:48;7.20;93.50
10231;DHT22;62604;49.432;8.680;2024-01-27T13:42:21;7.20;94.00
10231;DHT22;62604;49.432;8.680;2024-01-27T13:44:50;7.20;94.40
10231;DHT22;62604;49.432;8.680;2024-01-27T13:47:17;7.20;95.60
10231;DHT22;62604;49.432;8.680;2024-01-27T13:49:44;7.10;96.30
10231;DHT22;62604;49.432;8.680;2024-01-27T13:52:11;7.20;98.50
10231;DHT22;62604;49.432;8.680;2024-01-27T13:54:39;7.20;99.90
10231;DHT22;62604;49.432;8.680;2024-01-27T13:57:06;7.20;99.90
10231;DHT22;62604;49.432;8.680;2024-01-27T13:59:35;7.20;99.90
10231;DHT22;62604;49.432;8.680;2024-01-27T14:02:02;7.40;99.90
10231;DHT22;62604;49.432;8.680;2024-01-27T14:04:30;7.50;98.10
10231;DHT22;62604;49.432;8.680;2024-01-27T14:07:00;7.50;98.00
10231;DHT22;62604;49.432;8.680;2024-01-27T14:09:28;7.50;96.40
10231;DHT22;62604;49.432;8.680;2024-01-27T14:11:55;7.50;95.00
10231;DHT22;62604;49.432;8.680;2024-01-27T14:14:22;7.40;95.50
10231;DHT22;62604;49.432;8.680;2024-01-27T14:16:51;7.40;95.60
10231;DHT22;62604;49.432;8.680;2024-01-27T14:19:18;7.30;94.30
10231;DHT22;62604;49.432;8.680;2024-01-27T14:21:45;7.30;94.30
10231;DHT22;62604;49.432;8.680;2024-01-27T14:24:12;7.30;93.80
10231;DHT22;62604;49.432;8.680;2024-01-27T14:26:39;7.30;93.50
10231;DHT22;62604;49.432;8.680;2024-01-27T14:29:06;7.20;93.80
10231;DHT22;62604;49.432;8.680;2024-01-27T14:31:33;7.20;94.40
10231;DHT22;62604;49.432;8.680;2024-01-27T14:34:01;7.10;92.50
10231;DHT22;62604;49.432;8.680;2024-01-27T14:36:28;7.10;93.20
10231;DHT22;62604;49.432;8.680;2024-01-27T14:38:56;7.10;93.30
10231;DHT22;62604;49.432;8.680;2024-01-27T14:41:23;7.00;92.70
10231;DHT22;62604;49.432;8.680;2024-01-27T14:43:50;7.00;92.80
10231;DHT22;62604;49.432;8.680;2024-01-27T14:46:18;7.00;93.10
10231;DHT22;62604;49.432;8.680;2024-01-27T14:48:45;6.90;93.10
10231;DHT22;62604;49.432;8.680;2024-01-27T14:51:13;6.90;93.00
10231;DHT22;62604;49.432;8.680;2024-01-27T14:53:40;6.90;93.80
10231;DHT22;62604;49.432;8.680;2024-01-27T14:56:07;6.80;94.70
10231;DHT22;62604;49.432;8.680;2024-01-27T14:58:34;6.80;94.10
10231;DHT22;62604;49.432;8.680;2024-01-27T15:01:02;6.80;94.40
10231;DHT22;62604;49.432;8.680;2024-01-27T15:03:29;6.80;94.70
10231;DHT22;62604;49.432;8.680;2024-01-27T15:05:56;6.80;95.40
10231;DHT22;62604;49.432;8.680;2024-01-27T15:08:26;6.80;97.90
10231;DHT22;62604;49.432;8.680;2024-01-27T15:10:57;6.70;99.40
10231;DHT22;62604;49.432;8.680;2024-01-27T15:13:30;6.70;95.80
10231;DHT22;62604;49.432;8.680;2024-01-27T15:15:57;6.70;93.50
10231;DHT22;62604;49.432;8.680;2024-01-27T15:18:24;6.70;93.70
10231;DHT22;62604;49.432;8.680;2024-01-27T15:20:52;6.70;94.30
10231;DHT22;62604;49.432;8.680;2024-01-27T15:23:19;6.60;95.60
10231;DHT22;62604;49.432;8.680;2024-01-27T15:25:49;6.60;98.30
10231;DHT22;62604;49.432;8.680;2024-01-27T15:28:16;6.40;98.80
10231;DHT22;62604;49.432;8.680;2024-01-27T15:30:43;6.40;97.80
10231;DHT22;62604;49.432;8.680;2024-01-27T15:33:13;6.30;97.10
10231;DHT22;62604;49.432;8.680;2024-01-27T15:35:41;6.20;97.40
10231;DHT22;62604;49.432;8.680;2024-01-27T15:38:08;6.20;96.10
10231;DHT22;62604;49.432;8.680;2024-01-27T15:40:35;6.20;96.30
10231;DHT22;62604;49.432;8.680;2024-01-27T15:43:04;6.10;96.10
10231;DHT22;62604;49.432;8.680;2024-01-27T15:45:31;6.10;95.80
10231;DHT22;62604;49.432;8.680;2024-01-27T15:47:59;6.00;95.60
10231;DHT22;62604;49.432;8.680;2024-01-27T15:50:26;6.00;95.80